Portada
METAR-TAF:

METAR-TAF

Aeropuertos :

Aeropuerto Internacional de Jartum

Jartum, Sudán

latitud: 15-36N, longitud: 032-33E, altitud: 382 m

Observación

El informe se hizo hace 22 minutos, a las 16:00 UTC
Viento 7 kt del norte-noroeste
Temperatura 36°C
Humedad 12%
Presión 1007 hPa
Visibilidad 10 km o más
sin nubes por debajo de 1500 m y sin presencia de cumulonimbus.

METAR: HSSS 171600Z 33007KT CAVOK 36/02 Q1007 NOSIG

Hora: 19:22 (16:22 UTC)

Pronóstico

El informe se hizo hace 5 horas y 22 minutos, a las 11:00 UTC
Pronóstico válido del 17 a las 12 UTC al 18 a las 18 UTC
Viento 12 kt del norte con ráfagas de 22 kt
Visibilidad 10 km o más
sin nubes por debajo de 1500 m y sin presencia de cumulonimbus.
Temporalmente
del 18 a las 04 UTC al 18 a las 07 UTC
Visibilidad: 6000 m

TAF: HSSS 171100Z 1712/1818 35012G22KT CAVOK TEMPO 1804/1807 6000

Observaciones y pronósticos meteorológicos de más de 4000 aeropuertos (mensajes METAR y TAF).

Los puntos amarillos y rojos representan las estaciones disponibles.

Ponga el ratón en el punto deseado para ver el nombre de la estación.

Haga clic para ver las observaciones y los pronósticos meteorológicos.

Para cambiar el mapa : haga clic en los botones verdes con una cruz de color negro para hacer un zoom, en el botón verde con un guión para alejar o en las flechas verdes para mapas adyacentes.


METAR-TAF: